sensor_id;sensor_type;location;lat;lon;timestamp;P1;durP1;ratioP1;P2;durP2;ratioP2
76818;SDS011;65772;51.096;17.006;2023-11-19T00:01:43;22.60;;;12.00;;
76818;SDS011;65772;51.096;17.006;2023-11-19T00:04:15;22.90;;;12.50;;
76818;SDS011;65772;51.096;17.006;2023-11-19T00:06:45;23.80;;;13.00;;
76818;SDS011;65772;51.096;17.006;2023-11-19T00:09:16;22.90;;;12.60;;
76818;SDS011;65772;51.096;17.006;2023-11-19T00:11:46;24.50;;;12.90;;
76818;SDS011;65772;51.096;17.006;2023-11-19T00:14:20;23.40;;;12.70;;
76818;SDS011;65772;51.096;17.006;2023-11-19T00:16:52;23.90;;;12.90;;
76818;SDS011;65772;51.096;17.006;2023-11-19T00:19:22;23.50;;;12.60;;
76818;SDS011;65772;51.096;17.006;2023-11-19T00:21:54;24.30;;;12.40;;
76818;SDS011;65772;51.096;17.006;2023-11-19T00:24:24;24.70;;;12.60;;
76818;SDS011;65772;51.096;17.006;2023-11-19T00:26:56;23.70;;;12.30;;
76818;SDS011;65772;51.096;17.006;2023-11-19T00:29:26;23.10;;;11.70;;
76818;SDS011;65772;51.096;17.006;2023-11-19T00:31:57;22.10;;;12.20;;
76818;SDS011;65772;51.096;17.006;2023-11-19T00:34:27;22.90;;;12.40;;
76818;SDS011;65772;51.096;17.006;2023-11-19T00:36:58;23.80;;;12.30;;
76818;SDS011;65772;51.096;17.006;2023-11-19T00:39:31;21.80;;;11.40;;
76818;SDS011;65772;51.096;17.006;2023-11-19T00:42:02;22.00;;;11.60;;
76818;SDS011;65772;51.096;17.006;2023-11-19T00:44:33;24.60;;;11.90;;
76818;SDS011;65772;51.096;17.006;2023-11-19T00:47:04;25.60;;;12.90;;
76818;SDS011;65772;51.096;17.006;2023-11-19T00:49:35;24.70;;;12.40;;
76818;SDS011;65772;51.096;17.006;2023-11-19T00:52:05;26.30;;;13.50;;
76818;SDS011;65772;51.096;17.006;2023-11-19T00:54:36;24.10;;;13.90;;
76818;SDS011;65772;51.096;17.006;2023-11-19T00:57:06;23.60;;;13.90;;
76818;SDS011;65772;51.096;17.006;2023-11-19T00:59:37;26.40;;;14.40;;
76818;SDS011;65772;51.096;17.006;2023-11-19T01:02:09;28.70;;;14.00;;
76818;SDS011;65772;51.096;17.006;2023-11-19T01:04:42;24.70;;;13.50;;
76818;SDS011;65772;51.096;17.006;2023-11-19T01:07:13;26.50;;;14.00;;
76818;SDS011;65772;51.096;17.006;2023-11-19T01:09:44;28.00;;;14.10;;
76818;SDS011;65772;51.096;17.006;2023-11-19T01:12:14;28.70;;;14.40;;
76818;SDS011;65772;51.096;17.006;2023-11-19T01:14:45;27.70;;;14.20;;
76818;SDS011;65772;51.096;17.006;2023-11-19T01:17:15;28.80;;;14.30;;
76818;SDS011;65772;51.096;17.006;2023-11-19T01:19:46;26.00;;;13.50;;
76818;SDS011;65772;51.096;17.006;2023-11-19T01:22:18;28.70;;;15.30;;
76818;SDS011;65772;51.096;17.006;2023-11-19T01:24:48;23.10;;;12.30;;
76818;SDS011;65772;51.096;17.006;2023-11-19T01:27:20;26.80;;;13.60;;
76818;SDS011;65772;51.096;17.006;2023-11-19T01:29:51;26.50;;;13.30;;
76818;SDS011;65772;51.096;17.006;2023-11-19T01:32:22;25.30;;;13.10;;
76818;SDS011;65772;51.096;17.006;2023-11-19T01:34:53;27.90;;;13.60;;
76818;SDS011;65772;51.096;17.006;2023-11-19T01:37:24;29.30;;;14.10;;
76818;SDS011;65772;51.096;17.006;2023-11-19T01:39:54;26.60;;;13.90;;
76818;SDS011;65772;51.096;17.006;2023-11-19T01:42:26;22.90;;;12.90;;
76818;SDS011;65772;51.096;17.006;2023-11-19T01:44:59;27.70;;;13.30;;
76818;SDS011;65772;51.096;17.006;2023-11-19T01:47:30;27.70;;;14.00;;
76818;SDS011;65772;51.096;17.006;2023-11-19T01:50:01;26.80;;;14.30;;
76818;SDS011;65772;51.096;17.006;2023-11-19T01:52:35;27.40;;;13.30;;
76818;SDS011;65772;51.096;17.006;2023-11-19T01:55:07;24.90;;;13.20;;
76818;SDS011;65772;51.096;17.006;2023-11-19T01:57:40;28.70;;;14.30;;
76818;SDS011;65772;51.096;17.006;2023-11-19T02:00:12;26.70;;;14.10;;
76818;SDS011;65772;51.096;17.006;2023-11-19T02:02:44;25.60;;;13.60;;
76818;SDS011;65772;51.096;17.006;2023-11-19T02:05:15;24.00;;;13.30;;
76818;SDS011;65772;51.096;17.006;2023-11-19T02:07:46;24.90;;;13.80;;
76818;SDS011;65772;51.096;17.006;2023-11-19T02:10:18;25.60;;;13.60;;
76818;SDS011;65772;51.096;17.006;2023-11-19T02:12:48;27.40;;;13.40;;
76818;SDS011;65772;51.096;17.006;2023-11-19T02:15:19;27.10;;;13.60;;
76818;SDS011;65772;51.096;17.006;2023-11-19T02:17:52;26.20;;;13.00;;
76818;SDS011;65772;51.096;17.006;2023-11-19T02:20:22;26.40;;;13.30;;
76818;SDS011;65772;51.096;17.006;2023-11-19T02:22:54;28.90;;;14.60;;
76818;SDS011;65772;51.096;17.006;2023-11-19T02:25:25;24.50;;;12.00;;
76818;SDS011;65772;51.096;17.006;2023-11-19T02:28:00;23.30;;;13.20;;
76818;SDS011;65772;51.096;17.006;2023-11-19T02:33:01;25.20;;;12.00;;
76818;SDS011;65772;51.096;17.006;2023-11-19T02:35:33;23.00;;;12.90;;
76818;SDS011;65772;51.096;17.006;2023-11-19T02:38:04;25.60;;;13.10;;
76818;SDS011;65772;51.096;17.006;2023-11-19T02:40:36;24.90;;;13.00;;
76818;SDS011;65772;51.096;17.006;2023-11-19T02:43:06;22.70;;;12.30;;
76818;SDS011;65772;51.096;17.006;2023-11-19T02:45:37;22.90;;;12.70;;
76818;SDS011;65772;51.096;17.006;2023-11-19T02:48:08;28.90;;;14.20;;
76818;SDS011;65772;51.096;17.006;2023-11-19T02:50:38;26.00;;;13.90;;
76818;SDS011;65772;51.096;17.006;2023-11-19T02:53:09;28.90;;;13.20;;
76818;SDS011;65772;51.096;17.006;2023-11-19T02:55:41;25.00;;;12.90;;
76818;SDS011;65772;51.096;17.006;2023-11-19T02:58:16;23.70;;;12.80;;
76818;SDS011;65772;51.096;17.006;2023-11-19T03:00:51;25.50;;;13.70;;
76818;SDS011;65772;51.096;17.006;2023-11-19T03:03:26;26.50;;;13.80;;
76818;SDS011;65772;51.096;17.006;2023-11-19T03:06:06;27.30;;;13.30;;
76818;SDS011;65772;51.096;17.006;2023-11-19T03:08:37;25.70;;;13.20;;
76818;SDS011;65772;51.096;17.006;2023-11-19T03:11:08;27.70;;;13.30;;
76818;SDS011;65772;51.096;17.006;2023-11-19T03:13:38;26.70;;;14.60;;
76818;SDS011;65772;51.096;17.006;2023-11-19T03:16:09;28.10;;;14.30;;
76818;SDS011;65772;51.096;17.006;2023-11-19T03:18:40;26.40;;;13.90;;
76818;SDS011;65772;51.096;17.006;2023-11-19T03:21:10;25.60;;;13.60;;
76818;SDS011;65772;51.096;17.006;2023-11-19T03:23:41;26.80;;;14.30;;
76818;SDS011;65772;51.096;17.006;2023-11-19T03:26:12;27.70;;;13.80;;
76818;SDS011;65772;51.096;17.006;2023-11-19T03:28:42;28.10;;;14.50;;
76818;SDS011;65772;51.096;17.006;2023-11-19T03:31:13;25.40;;;14.20;;
76818;SDS011;65772;51.096;17.006;2023-11-19T03:33:43;27.00;;;14.00;;
76818;SDS011;65772;51.096;17.006;2023-11-19T03:36:14;27.90;;;13.60;;
76818;SDS011;65772;51.096;17.006;2023-11-19T03:38:45;27.60;;;14.50;;
76818;SDS011;65772;51.096;17.006;2023-11-19T03:41:15;27.50;;;14.20;;
76818;SDS011;65772;51.096;17.006;2023-11-19T03:43:46;26.90;;;14.00;;
76818;SDS011;65772;51.096;17.006;2023-11-19T03:46:17;29.10;;;14.60;;
76818;SDS011;65772;51.096;17.006;2023-11-19T03:48:49;25.70;;;13.50;;
76818;SDS011;65772;51.096;17.006;2023-11-19T03:51:20;27.20;;;14.50;;
76818;SDS011;65772;51.096;17.006;2023-11-19T03:53:50;26.90;;;13.40;;
76818;SDS011;65772;51.096;17.006;2023-11-19T03:56:21;26.50;;;12.80;;
76818;SDS011;65772;51.096;17.006;2023-11-19T03:58:52;26.30;;;12.90;;
76818;SDS011;65772;51.096;17.006;2023-11-19T04:01:22;25.70;;;13.00;;
76818;SDS011;65772;51.096;17.006;2023-11-19T04:03:53;30.00;;;14.00;;
76818;SDS011;65772;51.096;17.006;2023-11-19T04:06:25;24.60;;;13.70;;
76818;SDS011;65772;51.096;17.006;2023-11-19T04:08:56;24.10;;;12.50;;
76818;SDS011;65772;51.096;17.006;2023-11-19T04:11:27;26.90;;;13.40;;
76818;SDS011;65772;51.096;17.006;2023-11-19T04:13:57;26.80;;;12.60;;
76818;SDS011;65772;51.096;17.006;2023-11-19T04:16:28;25.90;;;13.00;;
76818;SDS011;65772;51.096;17.006;2023-11-19T04:18:59;24.80;;;12.40;;
76818;SDS011;65772;51.096;17.006;2023-11-19T04:21:30;27.70;;;13.20;;
76818;SDS011;65772;51.096;17.006;2023-11-19T04:24:00;26.90;;;13.00;;
76818;SDS011;65772;51.096;17.006;2023-11-19T04:26:31;22.70;;;12.10;;
76818;SDS011;65772;51.096;17.006;2023-11-19T04:29:02;24.60;;;12.10;;
76818;SDS011;65772;51.096;17.006;2023-11-19T04:31:32;25.10;;;13.20;;
76818;SDS011;65772;51.096;17.006;2023-11-19T04:34:03;22.30;;;11.70;;
76818;SDS011;65772;51.096;17.006;2023-11-19T04:36:34;23.30;;;12.30;;
76818;SDS011;65772;51.096;17.006;2023-11-19T04:39:05;22.80;;;11.80;;
76818;SDS011;65772;51.096;17.006;2023-11-19T04:41:46;24.20;;;11.90;;
76818;SDS011;65772;51.096;17.006;2023-11-19T04:44:17;22.00;;;11.80;;
76818;SDS011;65772;51.096;17.006;2023-11-19T04:46:48;23.00;;;11.60;;
76818;SDS011;65772;51.096;17.006;2023-11-19T04:49:19;22.50;;;11.50;;
76818;SDS011;65772;51.096;17.006;2023-11-19T04:51:49;23.60;;;10.70;;
76818;SDS011;65772;51.096;17.006;2023-11-19T04:54:20;20.80;;;11.00;;
76818;SDS011;65772;51.096;17.006;2023-11-19T04:56:50;22.00;;;11.30;;
76818;SDS011;65772;51.096;17.006;2023-11-19T04:59:21;19.20;;;10.20;;
76818;SDS011;65772;51.096;17.006;2023-11-19T05:01:51;19.70;;;11.40;;
76818;SDS011;65772;51.096;17.006;2023-11-19T05:04:22;23.60;;;11.40;;
76818;SDS011;65772;51.096;17.006;2023-11-19T05:06:53;24.40;;;11.60;;
76818;SDS011;65772;51.096;17.006;2023-11-19T05:09:23;21.40;;;10.80;;
76818;SDS011;65772;51.096;17.006;2023-11-19T05:11:54;22.30;;;10.90;;
76818;SDS011;65772;51.096;17.006;2023-11-19T05:14:24;20.60;;;10.40;;
76818;SDS011;65772;51.096;17.006;2023-11-19T05:16:55;17.90;;;10.20;;
76818;SDS011;65772;51.096;17.006;2023-11-19T05:19:26;21.60;;;10.50;;
76818;SDS011;65772;51.096;17.006;2023-11-19T05:21:56;19.30;;;10.00;;
76818;SDS011;65772;51.096;17.006;2023-11-19T05:24:27;19.20;;;9.90;;
76818;SDS011;65772;51.096;17.006;2023-11-19T05:26:58;16.70;;;9.80;;
76818;SDS011;65772;51.096;17.006;2023-11-19T05:29:28;17.20;;;9.90;;
76818;SDS011;65772;51.096;17.006;2023-11-19T05:31:59;20.20;;;10.70;;
76818;SDS011;65772;51.096;17.006;2023-11-19T05:34:29;19.00;;;9.50;;
76818;SDS011;65772;51.096;17.006;2023-11-19T05:37:00;19.00;;;9.40;;
76818;SDS011;65772;51.096;17.006;2023-11-19T05:39:30;17.40;;;9.60;;
76818;SDS011;65772;51.096;17.006;2023-11-19T05:42:01;18.70;;;9.60;;
76818;SDS011;65772;51.096;17.006;2023-11-19T05:44:32;19.00;;;9.70;;
76818;SDS011;65772;51.096;17.006;2023-11-19T05:47:06;19.80;;;9.70;;
76818;SDS011;65772;51.096;17.006;2023-11-19T05:49:37;18.00;;;9.00;;
76818;SDS011;65772;51.096;17.006;2023-11-19T05:52:07;17.20;;;9.10;;
76818;SDS011;65772;51.096;17.006;2023-11-19T05:54:39;17.20;;;9.60;;
76818;SDS011;65772;51.096;17.006;2023-11-19T05:57:10;18.40;;;9.70;;
76818;SDS011;65772;51.096;17.006;2023-11-19T05:59:41;16.50;;;9.20;;
76818;SDS011;65772;51.096;17.006;2023-11-19T06:02:12;18.80;;;9.10;;
76818;SDS011;65772;51.096;17.006;2023-11-19T06:04:43;15.50;;;8.50;;
76818;SDS011;65772;51.096;17.006;2023-11-19T06:07:15;17.60;;;9.40;;
76818;SDS011;65772;51.096;17.006;2023-11-19T06:09:46;18.80;;;9.90;;
76818;SDS011;65772;51.096;17.006;2023-11-19T06:12:16;15.90;;;9.00;;
76818;SDS011;65772;51.096;17.006;2023-11-19T06:14:47;17.60;;;9.30;;
76818;SDS011;65772;51.096;17.006;2023-11-19T06:17:17;16.40;;;8.90;;
76818;SDS011;65772;51.096;17.006;2023-11-19T06:19:48;17.40;;;8.50;;
76818;SDS011;65772;51.096;17.006;2023-11-19T06:22:18;15.00;;;8.90;;
76818;SDS011;65772;51.096;17.006;2023-11-19T06:24:49;16.20;;;9.30;;
76818;SDS011;65772;51.096;17.006;2023-11-19T06:27:20;16.90;;;8.70;;
76818;SDS011;65772;51.096;17.006;2023-11-19T06:29:51;17.00;;;9.00;;
76818;SDS011;65772;51.096;17.006;2023-11-19T06:32:22;17.40;;;8.90;;
76818;SDS011;65772;51.096;17.006;2023-11-19T06:34:53;16.90;;;9.20;;
76818;SDS011;65772;51.096;17.006;2023-11-19T06:37:23;17.20;;;8.90;;
76818;SDS011;65772;51.096;17.006;2023-11-19T06:39:55;16.70;;;9.10;;
76818;SDS011;65772;51.096;17.006;2023-11-19T06:42:25;19.20;;;8.90;;
76818;SDS011;65772;51.096;17.006;2023-11-19T06:44:56;17.00;;;8.90;;
76818;SDS011;65772;51.096;17.006;2023-11-19T06:47:27;15.60;;;8.20;;
76818;SDS011;65772;51.096;17.006;2023-11-19T06:49:58;16.60;;;8.90;;
76818;SDS011;65772;51.096;17.006;2023-11-19T06:52:28;14.10;;;8.40;;
76818;SDS011;65772;51.096;17.006;2023-11-19T06:54:59;16.20;;;8.50;;
76818;SDS011;65772;51.096;17.006;2023-11-19T06:57:32;16.10;;;8.50;;
76818;SDS011;65772;51.096;17.006;2023-11-19T07:00:03;14.10;;;7.80;;
76818;SDS011;65772;51.096;17.006;2023-11-19T07:02:37;14.90;;;7.90;;
76818;SDS011;65772;51.096;17.006;2023-11-19T07:05:08;13.00;;;7.50;;
76818;SDS011;65772;51.096;17.006;2023-11-19T07:07:39;13.70;;;6.80;;
76818;SDS011;65772;51.096;17.006;2023-11-19T07:10:10;14.60;;;8.20;;
76818;SDS011;65772;51.096;17.006;2023-11-19T07:12:41;14.10;;;7.60;;
76818;SDS011;65772;51.096;17.006;2023-11-19T07:15:12;11.80;;;7.20;;
76818;SDS011;65772;51.096;17.006;2023-11-19T07:17:45;12.90;;;7.00;;
76818;SDS011;65772;51.096;17.006;2023-11-19T07:20:28;12.60;;;7.10;;
76818;SDS011;65772;51.096;17.006;2023-11-19T07:22:59;15.50;;;7.40;;
76818;SDS011;65772;51.096;17.006;2023-11-19T07:25:30;13.30;;;6.80;;
76818;SDS011;65772;51.096;17.006;2023-11-19T07:30:32;15.00;;;6.50;;
76818;SDS011;65772;51.096;17.006;2023-11-19T07:33:02;12.20;;;7.00;;
76818;SDS011;65772;51.096;17.006;2023-11-19T07:35:33;11.90;;;6.80;;
76818;SDS011;65772;51.096;17.006;2023-11-19T07:38:04;13.70;;;6.80;;
76818;SDS011;65772;51.096;17.006;2023-11-19T07:40:35;11.40;;;6.40;;
76818;SDS011;65772;51.096;17.006;2023-11-19T07:43:05;12.90;;;7.10;;
76818;SDS011;65772;51.096;17.006;2023-11-19T07:45:35;12.40;;;6.40;;
76818;SDS011;65772;51.096;17.006;2023-11-19T07:48:06;13.20;;;6.90;;
76818;SDS011;65772;51.096;17.006;2023-11-19T07:50:36;14.80;;;7.70;;
76818;SDS011;65772;51.096;17.006;2023-11-19T07:53:08;13.70;;;6.80;;
76818;SDS011;65772;51.096;17.006;2023-11-19T07:55:40;14.10;;;7.20;;
76818;SDS011;65772;51.096;17.006;2023-11-19T07:58:11;16.10;;;6.90;;
76818;SDS011;65772;51.096;17.006;2023-11-19T08:00:42;13.20;;;7.30;;
76818;SDS011;65772;51.096;17.006;2023-11-19T08:03:13;12.80;;;7.10;;
76818;SDS011;65772;51.096;17.006;2023-11-19T08:05:43;13.30;;;7.10;;
76818;SDS011;65772;51.096;17.006;2023-11-19T08:08:14;14.10;;;7.30;;
76818;SDS011;65772;51.096;17.006;2023-11-19T08:10:45;15.80;;;8.20;;
76818;SDS011;65772;51.096;17.006;2023-11-19T08:13:16;13.60;;;6.90;;
76818;SDS011;65772;51.096;17.006;2023-11-19T08:15:48;13.50;;;7.20;;
76818;SDS011;65772;51.096;17.006;2023-11-19T08:18:19;13.70;;;7.00;;
76818;SDS011;65772;51.096;17.006;2023-11-19T08:20:50;13.40;;;7.20;;
76818;SDS011;65772;51.096;17.006;2023-11-19T08:23:21;12.70;;;7.20;;
76818;SDS011;65772;51.096;17.006;2023-11-19T08:25:53;12.40;;;6.60;;
76818;SDS011;65772;51.096;17.006;2023-11-19T08:28:27;14.90;;;8.50;;
76818;SDS011;65772;51.096;17.006;2023-11-19T08:30:58;17.90;;;10.20;;
76818;SDS011;65772;51.096;17.006;2023-11-19T08:33:29;14.00;;;7.70;;
76818;SDS011;65772;51.096;17.006;2023-11-19T08:36:00;13.50;;;7.50;;
76818;SDS011;65772;51.096;17.006;2023-11-19T08:38:31;15.10;;;7.60;;
76818;SDS011;65772;51.096;17.006;2023-11-19T08:41:02;13.90;;;6.80;;
76818;SDS011;65772;51.096;17.006;2023-11-19T08:43:33;12.50;;;6.40;;
76818;SDS011;65772;51.096;17.006;2023-11-19T08:46:05;12.30;;;6.80;;
76818;SDS011;65772;51.096;17.006;2023-11-19T08:48:39;13.90;;;7.30;;
76818;SDS011;65772;51.096;17.006;2023-11-19T08:51:10;13.90;;;7.30;;
76818;SDS011;65772;51.096;17.006;2023-11-19T08:53:41;13.30;;;6.60;;
76818;SDS011;65772;51.096;17.006;2023-11-19T08:56:11;13.50;;;7.60;;
76818;SDS011;65772;51.096;17.006;2023-11-19T08:58:42;15.10;;;8.00;;
76818;SDS011;65772;51.096;17.006;2023-11-19T09:01:12;15.10;;;8.30;;
76818;SDS011;65772;51.096;17.006;2023-11-19T09:03:43;15.20;;;8.40;;
76818;SDS011;65772;51.096;17.006;2023-11-19T09:06:14;16.10;;;7.80;;
76818;SDS011;65772;51.096;17.006;2023-11-19T09:08:44;14.60;;;7.20;;
76818;SDS011;65772;51.096;17.006;2023-11-19T09:11:15;12.30;;;7.50;;
76818;SDS011;65772;51.096;17.006;2023-11-19T09:13:47;13.90;;;7.30;;
76818;SDS011;65772;51.096;17.006;2023-11-19T09:16:17;14.60;;;7.50;;
76818;SDS011;65772;51.096;17.006;2023-11-19T09:18:48;18.00;;;10.00;;
76818;SDS011;65772;51.096;17.006;2023-11-19T09:21:18;17.70;;;9.10;;
76818;SDS011;65772;51.096;17.006;2023-11-19T09:23:50;14.10;;;7.90;;
76818;SDS011;65772;51.096;17.006;2023-11-19T09:26:21;12.50;;;6.70;;
76818;SDS011;65772;51.096;17.006;2023-11-19T09:28:52;14.90;;;7.60;;
76818;SDS011;65772;51.096;17.006;2023-11-19T09:31:23;14.60;;;7.90;;
76818;SDS011;65772;51.096;17.006;2023-11-19T09:33:53;12.10;;;6.70;;
76818;SDS011;65772;51.096;17.006;2023-11-19T09:36:24;12.70;;;7.40;;
76818;SDS011;65772;51.096;17.006;2023-11-19T09:38:54;14.70;;;7.50;;
76818;SDS011;65772;51.096;17.006;2023-11-19T09:41:27;17.80;;;6.90;;
76818;SDS011;65772;51.096;17.006;2023-11-19T09:44:02;13.70;;;7.40;;
76818;SDS011;65772;51.096;17.006;2023-11-19T09:46:34;13.50;;;7.60;;
76818;SDS011;65772;51.096;17.006;2023-11-19T09:49:05;13.10;;;7.00;;
76818;SDS011;65772;51.096;17.006;2023-11-19T09:51:37;15.10;;;7.10;;
76818;SDS011;65772;51.096;17.006;2023-11-19T09:54:07;14.70;;;7.40;;
76818;SDS011;65772;51.096;17.006;2023-11-19T09:56:40;12.30;;;7.00;;
76818;SDS011;65772;51.096;17.006;2023-11-19T09:59:12;13.80;;;7.00;;
76818;SDS011;65772;51.096;17.006;2023-11-19T10:01:43;11.90;;;6.40;;
76818;SDS011;65772;51.096;17.006;2023-11-19T10:04:15;16.30;;;6.80;;
76818;SDS011;65772;51.096;17.006;2023-11-19T10:06:46;14.70;;;6.60;;
76818;SDS011;65772;51.096;17.006;2023-11-19T10:09:18;12.40;;;6.60;;
76818;SDS011;65772;51.096;17.006;2023-11-19T10:11:49;12.40;;;7.00;;
76818;SDS011;65772;51.096;17.006;2023-11-19T10:14:20;13.80;;;6.90;;
76818;SDS011;65772;51.096;17.006;2023-11-19T10:16:53;11.40;;;6.20;;
76818;SDS011;65772;51.096;17.006;2023-11-19T10:19:25;12.70;;;5.70;;
76818;SDS011;65772;51.096;17.006;2023-11-19T10:21:57;11.30;;;5.50;;
76818;SDS011;65772;51.096;17.006;2023-11-19T10:24:33;6.90;;;3.60;;
76818;SDS011;65772;51.096;17.006;2023-11-19T10:27:10;9.30;;;4.00;;
76818;SDS011;65772;51.096;17.006;2023-11-19T10:29:44;6.40;;;3.40;;
76818;SDS011;65772;51.096;17.006;2023-11-19T10:32:15;5.20;;;3.00;;
76818;SDS011;65772;51.096;17.006;2023-11-19T10:34:54;5.50;;;2.90;;
76818;SDS011;65772;51.096;17.006;2023-11-19T10:37:35;5.60;;;3.00;;
76818;SDS011;65772;51.096;17.006;2023-11-19T10:40:07;5.10;;;2.80;;
76818;SDS011;65772;51.096;17.006;2023-11-19T10:42:40;8.50;;;4.00;;
76818;SDS011;65772;51.096;17.006;2023-11-19T10:45:22;7.90;;;4.00;;
76818;SDS011;65772;51.096;17.006;2023-11-19T10:47:53;9.30;;;4.00;;
76818;SDS011;65772;51.096;17.006;2023-11-19T10:50:25;6.50;;;3.20;;
76818;SDS011;65772;51.096;17.006;2023-11-19T10:52:57;5.70;;;2.90;;
76818;SDS011;65772;51.096;17.006;2023-11-19T10:55:30;5.20;;;3.10;;
76818;SDS011;65772;51.096;17.006;2023-11-19T10:58:03;5.50;;;2.90;;
76818;SDS011;65772;51.096;17.006;2023-11-19T11:00:39;6.50;;;3.00;;
76818;SDS011;65772;51.096;17.006;2023-11-19T11:03:16;6.30;;;3.20;;
76818;SDS011;65772;51.096;17.006;2023-11-19T11:05:48;6.80;;;3.40;;
76818;SDS011;65772;51.096;17.006;2023-11-19T11:08:20;5.00;;;2.80;;
76818;SDS011;65772;51.096;17.006;2023-11-19T11:10:52;6.00;;;3.00;;
76818;SDS011;65772;51.096;17.006;2023-11-19T11:13:26;6.90;;;3.00;;
76818;SDS011;65772;51.096;17.006;2023-11-19T11:15:57;8.80;;;4.00;;
76818;SDS011;65772;51.096;17.006;2023-11-19T11:18:29;6.00;;;2.60;;
76818;SDS011;65772;51.096;17.006;2023-11-19T11:21:00;6.00;;;3.00;;
76818;SDS011;65772;51.096;17.006;2023-11-19T11:24:00;8.50;;;5.20;;
76818;SDS011;65772;51.096;17.006;2023-11-19T11:27:06;5.50;;;3.10;;
76818;SDS011;65772;51.096;17.006;2023-11-19T11:30:11;8.30;;;4.50;;
76818;SDS011;65772;51.096;17.006;2023-11-19T11:32:50;7.00;;;3.10;;
76818;SDS011;65772;51.096;17.006;2023-11-19T11:35:30;7.30;;;3.70;;
76818;SDS011;65772;51.096;17.006;2023-11-19T11:38:07;7.50;;;3.50;;
76818;SDS011;65772;51.096;17.006;2023-11-19T11:40:38;7.50;;;3.00;;
76818;SDS011;65772;51.096;17.006;2023-11-19T11:49:28;6.40;;;3.30;;
76818;SDS011;65772;51.096;17.006;2023-11-19T11:52:00;6.50;;;3.60;;
76818;SDS011;65772;51.096;17.006;2023-11-19T11:54:35;6.50;;;3.30;;
76818;SDS011;65772;51.096;17.006;2023-11-19T11:57:09;6.10;;;3.00;;
76818;SDS011;65772;51.096;17.006;2023-11-19T11:59:51;5.90;;;3.20;;
76818;SDS011;65772;51.096;17.006;2023-11-19T12:02:23;7.00;;;3.80;;
76818;SDS011;65772;51.096;17.006;2023-11-19T12:05:09;12.40;;;7.40;;
76818;SDS011;65772;51.096;17.006;2023-11-19T12:07:41;17.60;;;8.60;;
76818;SDS011;65772;51.096;17.006;2023-11-19T12:10:23;9.00;;;4.50;;
76818;SDS011;65772;51.096;17.006;2023-11-19T12:12:58;8.00;;;4.10;;
76818;SDS011;65772;51.096;17.006;2023-11-19T12:15:30;6.10;;;3.50;;
76818;SDS011;65772;51.096;17.006;2023-11-19T12:18:00;6.00;;;3.10;;
76818;SDS011;65772;51.096;17.006;2023-11-19T12:20:31;7.80;;;3.70;;
76818;SDS011;65772;51.096;17.006;2023-11-19T12:23:05;7.40;;;3.80;;
76818;SDS011;65772;51.096;17.006;2023-11-19T12:25:37;6.90;;;4.10;;
76818;SDS011;65772;51.096;17.006;2023-11-19T12:28:11;7.70;;;3.80;;
76818;SDS011;65772;51.096;17.006;2023-11-19T12:30:42;7.30;;;3.90;;
76818;SDS011;65772;51.096;17.006;2023-11-19T12:33:13;8.90;;;3.80;;
76818;SDS011;65772;51.096;17.006;2023-11-19T12:35:45;9.40;;;4.20;;
76818;SDS011;65772;51.096;17.006;2023-11-19T12:38:19;8.40;;;4.70;;
76818;SDS011;65772;51.096;17.006;2023-11-19T12:41:03;10.90;;;4.60;;
76818;SDS011;65772;51.096;17.006;2023-11-19T12:43:34;7.70;;;4.10;;
76818;SDS011;65772;51.096;17.006;2023-11-19T12:46:17;8.60;;;4.40;;
76818;SDS011;65772;51.096;17.006;2023-11-19T12:48:49;9.40;;;4.50;;
76818;SDS011;65772;51.096;17.006;2023-11-19T12:51:20;9.70;;;6.30;;
76818;SDS011;65772;51.096;17.006;2023-11-19T12:53:52;14.90;;;9.20;;
76818;SDS011;65772;51.096;17.006;2023-11-19T12:56:23;15.70;;;8.60;;
76818;SDS011;65772;51.096;17.006;2023-11-19T12:58:54;11.80;;;6.20;;
76818;SDS011;65772;51.096;17.006;2023-11-19T13:01:25;9.10;;;5.00;;
76818;SDS011;65772;51.096;17.006;2023-11-19T13:03:55;11.20;;;5.50;;
76818;SDS011;65772;51.096;17.006;2023-11-19T13:06:26;9.40;;;4.90;;
76818;SDS011;65772;51.096;17.006;2023-11-19T13:08:57;8.20;;;4.20;;
76818;SDS011;65772;51.096;17.006;2023-11-19T13:11:34;9.30;;;4.30;;
76818;SDS011;65772;51.096;17.006;2023-11-19T13:14:07;10.50;;;5.30;;
76818;SDS011;65772;51.096;17.006;2023-11-19T13:16:39;17.80;;;7.80;;
76818;SDS011;65772;51.096;17.006;2023-11-19T13:19:11;15.80;;;6.00;;
76818;SDS011;65772;51.096;17.006;2023-11-19T13:21:41;11.80;;;6.30;;
76818;SDS011;65772;51.096;17.006;2023-11-19T13:24:14;14.40;;;7.60;;
76818;SDS011;65772;51.096;17.006;2023-11-19T13:26:45;12.70;;;6.50;;
76818;SDS011;65772;51.096;17.006;2023-11-19T13:29:15;13.30;;;7.00;;
76818;SDS011;65772;51.096;17.006;2023-11-19T13:31:46;14.40;;;8.70;;
76818;SDS011;65772;51.096;17.006;2023-11-19T13:34:17;13.30;;;6.70;;
76818;SDS011;65772;51.096;17.006;2023-11-19T13:36:48;12.70;;;5.70;;
76818;SDS011;65772;51.096;17.006;2023-11-19T13:39:19;10.00;;;5.10;;
76818;SDS011;65772;51.096;17.006;2023-11-19T13:41:51;11.00;;;5.20;;
76818;SDS011;65772;51.096;17.006;2023-11-19T13:44:40;14.00;;;6.10;;
76818;SDS011;65772;51.096;17.006;2023-11-19T13:47:11;11.00;;;5.60;;
76818;SDS011;65772;51.096;17.006;2023-11-19T13:49:41;11.30;;;5.90;;
76818;SDS011;65772;51.096;17.006;2023-11-19T13:52:13;14.50;;;6.80;;
76818;SDS011;65772;51.096;17.006;2023-11-19T13:54:43;15.50;;;9.50;;
76818;SDS011;65772;51.096;17.006;2023-11-19T13:57:14;14.50;;;7.80;;
76818;SDS011;65772;51.096;17.006;2023-11-19T13:59:44;11.60;;;6.00;;
76818;SDS011;65772;51.096;17.006;2023-11-19T14:02:15;11.60;;;5.70;;
76818;SDS011;65772;51.096;17.006;2023-11-19T14:04:45;8.60;;;4.60;;
76818;SDS011;65772;51.096;17.006;2023-11-19T14:07:16;10.00;;;5.20;;
76818;SDS011;65772;51.096;17.006;2023-11-19T14:09:46;10.40;;;5.20;;
76818;SDS011;65772;51.096;17.006;2023-11-19T14:12:18;12.90;;;5.40;;
76818;SDS011;65772;51.096;17.006;2023-11-19T14:14:48;11.60;;;5.40;;
76818;SDS011;65772;51.096;17.006;2023-11-19T14:17:19;12.20;;;5.60;;
76818;SDS011;65772;51.096;17.006;2023-11-19T14:19:49;10.50;;;5.10;;
76818;SDS011;65772;51.096;17.006;2023-11-19T14:22:20;10.10;;;4.80;;
76818;SDS011;65772;51.096;17.006;2023-11-19T14:24:50;9.70;;;4.40;;
76818;SDS011;65772;51.096;17.006;2023-11-19T14:27:22;9.40;;;3.90;;
76818;SDS011;65772;51.096;17.006;2023-11-19T14:29:53;9.40;;;3.80;;
76818;SDS011;65772;51.096;17.006;2023-11-19T14:32:23;11.10;;;3.50;;
76818;SDS011;65772;51.096;17.006;2023-11-19T14:34:54;9.90;;;3.70;;
76818;SDS011;65772;51.096;17.006;2023-11-19T14:37:24;7.70;;;3.50;;
76818;SDS011;65772;51.096;17.006;2023-11-19T14:39:55;8.50;;;3.60;;
76818;SDS011;65772;51.096;17.006;2023-11-19T14:42:25;8.60;;;3.50;;
76818;SDS011;65772;51.096;17.006;2023-11-19T14:44:56;9.50;;;3.70;;
76818;SDS011;65772;51.096;17.006;2023-11-19T14:47:27;8.10;;;3.30;;
76818;SDS011;65772;51.096;17.006;2023-11-19T14:49:58;7.50;;;3.70;;
76818;SDS011;65772;51.096;17.006;2023-11-19T14:52:29;8.60;;;3.10;;
76818;SDS011;65772;51.096;17.006;2023-11-19T14:54:59;9.90;;;3.90;;
76818;SDS011;65772;51.096;17.006;2023-11-19T14:57:30;8.90;;;3.70;;